x

Nantucket Sound (44020) Wave Buoy

9:50pm - Sun 21st Dec 2014 All times are EST. -5 hours from GMT.

  • Sig Wave height 1.0ft
  • Swell Direction
  • Peak Period 7s
  • Average Period 4s
  • Wind
    9mph, 11mph gusts
  • Sea Temp 43°f
  • Air Temp 42°f
  • Sea Pressure 1026.3mb
  • Nantucket Sound
  • Nantucket Sound

More Historic Weather Station data

Upgrade to MSW Pro to gain access to the past 30 days of data for over 8000 Wavebouys and Weather Stations around the globe.

Join Pro

Comparision Forecast

View Surf forecast
   
Sun 12/21 9:50pm 1ft 7s 4s 9 11 mph 1026.3mb 43f 42f
8:50pm 0.7ft  -  3s 9 11 mph 1025.9mb 43f 42f
7:50pm 0.7ft  -  3s 11 13 mph 1025.7mb 43f 42f
6:50pm 0.7ft  -  3s 11 13 mph 1025.6mb 44f 42f
5:50pm 1ft 3s 3s 9 11 mph 1025.3mb 44f 42f
4:50pm 1ft 3s 3s 11 16 mph 1024.9mb 44f 42f
3:50pm 1ft 6s 3s 11 13 mph 1024.6mb 44f 42f
2:50pm 1ft 6s 3s 13 16 mph 1024.2mb 44f 42f
1:50pm 1ft 6s 4s 11 18 mph 1023.8mb 44f 42f
12:50pm 1ft 3s 3s 9 11 mph 1023.9mb 43f 42f
11:50am 1.3ft 6s 4s 7 9 mph 1024.3mb 43f 42f
10:50am 1.6ft 6s 3s 9 11 mph 1024.8mb 43f 42f
9:50am 2ft 3s 3s 11 13 mph 1025mb 43f 42f
8:50am 1.6ft 3s 3s 16 18 mph 1024.4mb 43f 42f
7:50am 1.6ft 3s 3s 13 16 mph 1024.4mb 43f 41f
6:50am 1.3ft 3s 3s 16 20 mph 1024.2mb 43f 41f
5:50am 1.3ft 3s 3s 13 18 mph 1023.9mb 43f 41f
4:50am 1.3ft 3s 3s 13 16 mph 1023.7mb 44f 41f
3:50am 1.3ft 3s 3s 13 16 mph 1023.7mb 44f 41f
2:50am 1.6ft 3s 3s 11 16 mph 1023.8mb 44f 41f
1:50am 1.6ft 3s 3s 13 16 mph 1023.7mb 43f 41f
12:50am 1.6ft 4s 3s 16 18 mph 1023.3mb 43f 41f
Sat 12/20 11:50pm 2ft 3s 3s 13 16 mph 1023.7mb 43f 41f
10:50pm 2ft 3s 3s 13 20 mph 1023.9mb 43f 42f
9:50pm 2.5ft 4s 4s 18 20 mph 1023.7mb 43f 42f
8:50pm 1.6ft 3s 3s 18 20 mph 1023.6mb 43f 41f
7:50pm 1.3ft 3s 3s 16 18 mph 1023.9mb 43f 42f
6:50pm 1ft 3s 3s 11 13 mph 1023.9mb 43f 41f
5:50pm 1ft 3s 3s 11 13 mph 1023.5mb 43f 40f
4:50pm 1.3ft 3s 3s 13 16 mph 1023.1mb 44f 39f
3:50pm 1.3ft 3s 3s 13 16 mph 1023.1mb 44f 39f
2:50pm 1ft 3s 3s 11 13 mph 1023.2mb 44f 39f
1:50pm 1ft 3s 3s 9 13 mph 1022.8mb 44f 39f
12:50pm 1ft 4s 3s 11 13 mph 1022.8mb 43f 40f
11:50am 1ft 3s 3s 11 13 mph 1022.9mb 43f 39f
10:50am 1.3ft 3s 3s 11 13 mph 1023.6mb 43f 38f
9:50am 1.3ft 3s 3s 11 13 mph 1023.8mb 42f 37f
8:50am 1ft 5s 3s 11 13 mph 1023.7mb 42f 37f
7:50am 1ft 6s 3s 11 13 mph 1023mb 42f 37f
6:50am 1ft 2s 3s 11 13 mph 1022.3mb 42f 37f
5:50am 1.3ft 3s 3s 13 16 mph 1021.7mb 42f 36f
4:50am 1.3ft 3s 3s 13 16 mph 1021.1mb 42f 36f
3:50am 1.6ft 3s 3s 13 16 mph 1020.7mb 42f 37f
2:50am 1.6ft 3s 3s 13 16 mph 1020.5mb 42f 36f
1:50am 2.5ft 4s 3s 13 16 mph 1020.4mb 43f 37f
12:50am 2ft 4s 3s 18 20 mph 1019.5mb 43f 36f
Fri 12/19 11:50pm 2ft 4s 3s 18 20 mph 1019mb 43f 36f
10:50pm 1.6ft 3s 3s 18 20 mph 1018.6mb 43f 36f
9:50pm 1.6ft 3s 3s 16 18 mph 1018.7mb 42f 36f
8:50pm 1.3ft 2s 3s 13 18 mph 1018.3mb 42f 36f
7:50pm 1ft 3s 3s 13 18 mph 1017.7mb 43f 36f
6:50pm 1ft 3s 3s 13 18 mph 1017mb 43f 36f
5:50pm 1.3ft 3s 3s 11 16 mph 1016.3mb 43f 36f
4:50pm 1.6ft 3s 3s 13 16 mph 1015.7mb 43f 36f
3:50pm 1.6ft 3s 3s 16 20 mph 1014.9mb 43f 36f
2:50pm 1.3ft 3s 3s 13 20 mph 1014.2mb 43f 36f
1:50pm 1.3ft 3s 3s 13 18 mph 1013.3mb 43f 37f
12:50pm 1.3ft 3s 3s 13 16 mph 1013.2mb 43f 37f
11:50am 1.3ft 4s 3s 13 16 mph 1013.4mb 43f 37f
10:50am 1.6ft 4s 3s 13 18 mph 1013.5mb 43f 37f
9:50am 2ft 3s 3s 18 20 mph 1013.7mb 43f 37f
8:50am 1.6ft 3s 3s 18 22 mph 1013mb 43f 37f
7:50am 1.6ft 3s 3s 20 25 mph 1012.4mb 43f 37f
6:50am 1.6ft 3s 3s 20 25 mph 1011.7mb 43f 37f
5:50am 2ft 3s 3s 20 25 mph 1011.2mb 43f 37f
4:50am 2ft 3s 3s 18 22 mph 1011.1mb 43f 38f
3:50am 2ft 4s 3s 20 25 mph 1010.8mb 43f 38f
2:50am 2ft 4s 3s 20 22 mph 1010.8mb 43f 39f
1:50am 2.5ft 4s 4s 20 22 mph 1010.9mb 43f 39f
12:50am 2.5ft 4s 4s 20 25 mph 1010.6mb 43f 39f
Thu 12/18 11:50pm 2.5ft 4s 4s 18 22 mph 1010.6mb 43f 39f
10:50pm 2.5ft 4s 4s 20 22 mph 1010.7mb 43f 40f
9:50pm 2ft 4s 4s 20 22 mph 1010.5mb 43f 40f
8:50pm 2.5ft 4s 3s 20 25 mph 1010mb 44f 40f
7:50pm 2ft 3s 3s 22 27 mph 1009.9mb 44f 41f
6:50pm 2ft 3s 3s 18 20 mph 1010.5mb 44f 42f
5:50pm 2ft 3s 3s 22 27 mph 1009.7mb 44f 42f
4:50pm 2.5ft 3s 3s 22 27 mph 1009.4mb 44f 42f
3:50pm 2.5ft 4s 3s 18 22 mph 1008.8mb 44f 43f
2:50pm 2.5ft 4s 3s 20 22 mph 1008.2mb 44f 43f
1:50pm 3ft 4s 4s 22 25 mph 1007.6mb 44f 43f
12:50pm 3ft 5s 4s 25 29 mph 1007.2mb 44f 42f
11:50am 3ft 5s 4s 25 27 mph 1007.6mb 44f 42f
10:50am 3.5ft 5s 4s 25 27 mph 1007.9mb 44f 40f
9:50am 3.5ft 5s 4s 27 31 mph 1008.1mb 44f 39f
8:50am 3.5ft 5s 4s 27 34 mph 1007.5mb 44f 39f
7:50am 3.5ft 4s 4s 29 34 mph 1006.7mb 44f 40f
6:50am 3.5ft 4s 4s 27 34 mph 1006.4mb 44f 41f
5:50am 3ft 4s 3s 27 31 mph 1006.2mb 44f 41f
4:50am 2.5ft 4s 3s 22 27 mph 1006.3mb 44f 41f